sensor_id;sensor_type;location;lat;lon;timestamp;temperature;humidity
49184;DHT22;35021;49.214;12.270;2022-10-15T00:01:21;21.30;55.70
49184;DHT22;35021;49.214;12.270;2022-10-15T00:03:49;21.30;55.70
49184;DHT22;35021;49.214;12.270;2022-10-15T00:06:19;21.30;55.60
49184;DHT22;35021;49.214;12.270;2022-10-15T00:08:46;21.30;55.60
49184;DHT22;35021;49.214;12.270;2022-10-15T00:11:20;21.30;55.70
49184;DHT22;35021;49.214;12.270;2022-10-15T00:13:48;21.30;55.70
49184;DHT22;35021;49.214;12.270;2022-10-15T00:16:19;21.30;55.80
49184;DHT22;35021;49.214;12.270;2022-10-15T00:18:47;21.30;55.80
49184;DHT22;35021;49.214;12.270;2022-10-15T00:21:16;21.20;55.70
49184;DHT22;35021;49.214;12.270;2022-10-15T00:23:44;21.20;55.80
49184;DHT22;35021;49.214;12.270;2022-10-15T00:26:14;21.20;55.80
49184;DHT22;35021;49.214;12.270;2022-10-15T00:28:41;21.20;55.80
49184;DHT22;35021;49.214;12.270;2022-10-15T00:31:13;21.20;55.70
49184;DHT22;35021;49.214;12.270;2022-10-15T00:33:41;21.20;55.80
49184;DHT22;35021;49.214;12.270;2022-10-15T00:36:17;21.20;55.70
49184;DHT22;35021;49.214;12.270;2022-10-15T00:38:45;21.20;55.70
49184;DHT22;35021;49.214;12.270;2022-10-15T00:43:46;21.20;55.70
49184;DHT22;35021;49.214;12.270;2022-10-15T00:48:43;21.20;55.70
49184;DHT22;35021;49.214;12.270;2022-10-15T00:51:11;21.20;55.70
49184;DHT22;35021;49.214;12.270;2022-10-15T00:53:37;21.20;55.70
49184;DHT22;35021;49.214;12.270;2022-10-15T00:56:05;21.20;55.60
49184;DHT22;35021;49.214;12.270;2022-10-15T00:58:33;21.20;55.60
49184;DHT22;35021;49.214;12.270;2022-10-15T01:01:00;21.20;55.60
49184;DHT22;35021;49.214;12.270;2022-10-15T01:03:27;21.20;55.50
49184;DHT22;35021;49.214;12.270;2022-10-15T01:05:54;21.20;55.50
49184;DHT22;35021;49.214;12.270;2022-10-15T01:08:21;21.20;55.50
49184;DHT22;35021;49.214;12.270;2022-10-15T01:16:41;21.20;55.40
49184;DHT22;35021;49.214;12.270;2022-10-15T01:27:38;21.20;55.40
49184;DHT22;35021;49.214;12.270;2022-10-15T01:36:36;21.20;55.30
49184;DHT22;35021;49.214;12.270;2022-10-15T01:41:26;21.20;55.40
49184;DHT22;35021;49.214;12.270;2022-10-15T01:44:08;21.20;55.40
49184;DHT22;35021;49.214;12.270;2022-10-15T01:46:48;21.20;56.20
49184;DHT22;35021;49.214;12.270;2022-10-15T01:49:18;21.10;55.50
49184;DHT22;35021;49.214;12.270;2022-10-15T01:51:55;21.10;55.50
49184;DHT22;35021;49.214;12.270;2022-10-15T01:54:24;21.10;55.50
49184;DHT22;35021;49.214;12.270;2022-10-15T01:56:52;21.10;55.50
49184;DHT22;35021;49.214;12.270;2022-10-15T01:59:27;21.10;56.20
49184;DHT22;35021;49.214;12.270;2022-10-15T02:01:55;21.10;56.30
49184;DHT22;35021;49.214;12.270;2022-10-15T02:04:29;21.10;55.50
49184;DHT22;35021;49.214;12.270;2022-10-15T02:07:27;21.10;55.50
49184;DHT22;35021;49.214;12.270;2022-10-15T02:18:17;21.20;55.60
49184;DHT22;35021;49.214;12.270;2022-10-15T02:21:21;21.10;55.60
49184;DHT22;35021;49.214;12.270;2022-10-15T02:23:55;21.20;55.70
49184;DHT22;35021;49.214;12.270;2022-10-15T02:26:27;21.10;55.50
49184;DHT22;35021;49.214;12.270;2022-10-15T02:28:57;21.20;55.60
49184;DHT22;35021;49.214;12.270;2022-10-15T02:31:29;21.20;55.60
49184;DHT22;35021;49.214;12.270;2022-10-15T02:34:04;21.20;55.50
49184;DHT22;35021;49.214;12.270;2022-10-15T02:36:32;21.20;55.50
49184;DHT22;35021;49.214;12.270;2022-10-15T02:39:00;21.20;56.30
49184;DHT22;35021;49.214;12.270;2022-10-15T02:41:29;21.20;55.50
49184;DHT22;35021;49.214;12.270;2022-10-15T02:43:55;21.20;55.50
49184;DHT22;35021;49.214;12.270;2022-10-15T02:46:22;21.20;55.40
49184;DHT22;35021;49.214;12.270;2022-10-15T02:48:49;21.20;55.50
49184;DHT22;35021;49.214;12.270;2022-10-15T02:51:16;21.20;55.50
49184;DHT22;35021;49.214;12.270;2022-10-15T02:53:42;21.20;55.50
49184;DHT22;35021;49.214;12.270;2022-10-15T02:56:09;21.20;55.40
49184;DHT22;35021;49.214;12.270;2022-10-15T02:58:36;21.20;55.40
49184;DHT22;35021;49.214;12.270;2022-10-15T03:01:03;21.20;55.40
49184;DHT22;35021;49.214;12.270;2022-10-15T03:03:30;21.20;55.40
49184;DHT22;35021;49.214;12.270;2022-10-15T03:05:57;21.20;55.40
49184;DHT22;35021;49.214;12.270;2022-10-15T03:08:24;21.20;55.30
49184;DHT22;35021;49.214;12.270;2022-10-15T03:10:50;21.20;55.40
49184;DHT22;35021;49.214;12.270;2022-10-15T03:13:17;21.20;55.40
49184;DHT22;35021;49.214;12.270;2022-10-15T03:15:44;21.20;55.40
49184;DHT22;35021;49.214;12.270;2022-10-15T03:18:11;21.20;55.40
49184;DHT22;35021;49.214;12.270;2022-10-15T03:20:37;21.20;55.40
49184;DHT22;35021;49.214;12.270;2022-10-15T03:23:04;21.20;55.50
49184;DHT22;35021;49.214;12.270;2022-10-15T03:25:31;21.20;55.40
49184;DHT22;35021;49.214;12.270;2022-10-15T03:27:58;21.20;55.40
49184;DHT22;35021;49.214;12.270;2022-10-15T03:30:24;21.20;55.40
49184;DHT22;35021;49.214;12.270;2022-10-15T03:32:51;21.20;55.40
49184;DHT22;35021;49.214;12.270;2022-10-15T03:35:18;21.20;55.40
49184;DHT22;35021;49.214;12.270;2022-10-15T03:37:45;21.20;56.10
49184;DHT22;35021;49.214;12.270;2022-10-15T03:40:12;21.20;55.40
49184;DHT22;35021;49.214;12.270;2022-10-15T03:42:40;21.20;55.40
49184;DHT22;35021;49.214;12.270;2022-10-15T03:45:07;21.20;55.40
49184;DHT22;35021;49.214;12.270;2022-10-15T03:47:34;21.20;55.50
49184;DHT22;35021;49.214;12.270;2022-10-15T03:50:01;21.20;55.50
49184;DHT22;35021;49.214;12.270;2022-10-15T03:52:28;21.20;55.60
49184;DHT22;35021;49.214;12.270;2022-10-15T03:54:55;21.20;55.60
49184;DHT22;35021;49.214;12.270;2022-10-15T03:57:22;21.20;55.60
49184;DHT22;35021;49.214;12.270;2022-10-15T03:59:49;21.20;55.60
49184;DHT22;35021;49.214;12.270;2022-10-15T04:02:15;21.20;55.60
49184;DHT22;35021;49.214;12.270;2022-10-15T04:04:42;21.20;55.50
49184;DHT22;35021;49.214;12.270;2022-10-15T04:07:09;21.20;56.20
49184;DHT22;35021;49.214;12.270;2022-10-15T04:09:36;21.20;55.60
49184;DHT22;35021;49.214;12.270;2022-10-15T04:12:03;21.20;55.60
49184;DHT22;35021;49.214;12.270;2022-10-15T04:14:30;21.20;55.60
49184;DHT22;35021;49.214;12.270;2022-10-15T04:16:57;21.20;55.60
49184;DHT22;35021;49.214;12.270;2022-10-15T04:19:24;21.20;55.60
49184;DHT22;35021;49.214;12.270;2022-10-15T04:21:51;21.20;55.60
49184;DHT22;35021;49.214;12.270;2022-10-15T04:24:18;21.20;55.60
49184;DHT22;35021;49.214;12.270;2022-10-15T04:26:45;21.20;55.60
49184;DHT22;35021;49.214;12.270;2022-10-15T04:29:11;21.20;55.60
49184;DHT22;35021;49.214;12.270;2022-10-15T04:31:38;21.20;55.60
49184;DHT22;35021;49.214;12.270;2022-10-15T04:34:06;21.20;55.60
49184;DHT22;35021;49.214;12.270;2022-10-15T04:36:33;21.20;55.60
49184;DHT22;35021;49.214;12.270;2022-10-15T04:39:00;21.20;55.60
49184;DHT22;35021;49.214;12.270;2022-10-15T04:41:27;21.20;55.60
49184;DHT22;35021;49.214;12.270;2022-10-15T04:43:54;21.20;55.60
49184;DHT22;35021;49.214;12.270;2022-10-15T04:46:21;21.20;55.70
49184;DHT22;35021;49.214;12.270;2022-10-15T04:48:48;21.20;55.70
49184;DHT22;35021;49.214;12.270;2022-10-15T04:51:19;21.20;55.70
49184;DHT22;35021;49.214;12.270;2022-10-15T04:53:46;21.10;55.70
49184;DHT22;35021;49.214;12.270;2022-10-15T04:56:15;21.10;56.40
49184;DHT22;35021;49.214;12.270;2022-10-15T04:58:45;21.10;55.80
49184;DHT22;35021;49.214;12.270;2022-10-15T05:01:14;21.10;55.90
49184;DHT22;35021;49.214;12.270;2022-10-15T05:03:43;21.00;56.00
49184;DHT22;35021;49.214;12.270;2022-10-15T05:06:17;21.00;56.10
49184;DHT22;35021;49.214;12.270;2022-10-15T05:08:45;21.00;56.30
49184;DHT22;35021;49.214;12.270;2022-10-15T05:11:16;21.00;56.40
49184;DHT22;35021;49.214;12.270;2022-10-15T05:13:43;21.00;56.50
49184;DHT22;35021;49.214;12.270;2022-10-15T05:16:17;20.90;56.50
49184;DHT22;35021;49.214;12.270;2022-10-15T05:18:47;20.90;56.50
49184;DHT22;35021;49.214;12.270;2022-10-15T05:21:14;20.90;56.60
49184;DHT22;35021;49.214;12.270;2022-10-15T05:23:41;20.90;56.60
49184;DHT22;35021;49.214;12.270;2022-10-15T05:26:16;20.90;56.70
49184;DHT22;35021;49.214;12.270;2022-10-15T05:28:43;20.90;56.80
49184;DHT22;35021;49.214;12.270;2022-10-15T05:31:12;20.80;56.80
49184;DHT22;35021;49.214;12.270;2022-10-15T05:33:45;20.90;56.90
49184;DHT22;35021;49.214;12.270;2022-10-15T05:36:17;20.80;56.90
49184;DHT22;35021;49.214;12.270;2022-10-15T05:38:46;20.80;57.00
49184;DHT22;35021;49.214;12.270;2022-10-15T05:41:13;20.80;56.40
49184;DHT22;35021;49.214;12.270;2022-10-15T05:43:40;20.80;57.00
49184;DHT22;35021;49.214;12.270;2022-10-15T05:46:08;20.80;57.10
49184;DHT22;35021;49.214;12.270;2022-10-15T05:48:35;20.80;57.10
49184;DHT22;35021;49.214;12.270;2022-10-15T05:51:03;20.80;57.10
49184;DHT22;35021;49.214;12.270;2022-10-15T05:53:30;20.80;57.00
49184;DHT22;35021;49.214;12.270;2022-10-15T05:55:57;20.80;57.10
49184;DHT22;35021;49.214;12.270;2022-10-15T05:58:25;20.80;57.10
49184;DHT22;35021;49.214;12.270;2022-10-15T06:00:53;20.80;57.10
49184;DHT22;35021;49.214;12.270;2022-10-15T06:03:20;20.80;57.00
49184;DHT22;35021;49.214;12.270;2022-10-15T06:05:47;20.80;57.00
49184;DHT22;35021;49.214;12.270;2022-10-15T06:08:14;20.80;57.10
49184;DHT22;35021;49.214;12.270;2022-10-15T06:10:41;20.80;57.20
49184;DHT22;35021;49.214;12.270;2022-10-15T06:13:09;20.70;57.20
49184;DHT22;35021;49.214;12.270;2022-10-15T06:15:40;20.70;57.30
49184;DHT22;35021;49.214;12.270;2022-10-15T06:18:09;20.70;57.40
49184;DHT22;35021;49.214;12.270;2022-10-15T06:20:36;20.70;57.40
49184;DHT22;35021;49.214;12.270;2022-10-15T06:23:04;20.70;57.40
49184;DHT22;35021;49.214;12.270;2022-10-15T06:25:32;20.70;57.50
49184;DHT22;35021;49.214;12.270;2022-10-15T06:28:04;20.70;57.50
49184;DHT22;35021;49.214;12.270;2022-10-15T06:30:31;20.70;57.60
49184;DHT22;35021;49.214;12.270;2022-10-15T06:32:58;20.70;57.60
49184;DHT22;35021;49.214;12.270;2022-10-15T06:35:25;20.70;57.70
49184;DHT22;35021;49.214;12.270;2022-10-15T06:37:52;20.70;57.80
49184;DHT22;35021;49.214;12.270;2022-10-15T06:40:19;20.70;57.80
49184;DHT22;35021;49.214;12.270;2022-10-15T06:42:46;20.70;57.80
49184;DHT22;35021;49.214;12.270;2022-10-15T06:45:13;20.70;57.80
49184;DHT22;35021;49.214;12.270;2022-10-15T06:47:45;20.70;57.80
49184;DHT22;35021;49.214;12.270;2022-10-15T06:50:12;20.70;57.80
49184;DHT22;35021;49.214;12.270;2022-10-15T06:52:38;20.70;57.80
49184;DHT22;35021;49.214;12.270;2022-10-15T06:55:06;20.60;57.90
49184;DHT22;35021;49.214;12.270;2022-10-15T06:57:33;20.60;57.90
49184;DHT22;35021;49.214;12.270;2022-10-15T07:00:00;20.60;57.90
49184;DHT22;35021;49.214;12.270;2022-10-15T07:02:27;20.60;58.00
49184;DHT22;35021;49.214;12.270;2022-10-15T07:04:55;20.60;58.10
49184;DHT22;35021;49.214;12.270;2022-10-15T07:07:22;20.60;58.10
49184;DHT22;35021;49.214;12.270;2022-10-15T07:09:49;20.60;58.20
49184;DHT22;35021;49.214;12.270;2022-10-15T07:12:19;20.50;58.10
49184;DHT22;35021;49.214;12.270;2022-10-15T07:14:48;20.50;58.20
49184;DHT22;35021;49.214;12.270;2022-10-15T07:17:15;20.60;58.30
49184;DHT22;35021;49.214;12.270;2022-10-15T07:19:42;20.50;58.20
49184;DHT22;35021;49.214;12.270;2022-10-15T07:22:10;20.50;58.20
49184;DHT22;35021;49.214;12.270;2022-10-15T07:24:36;20.50;58.10
49184;DHT22;35021;49.214;12.270;2022-10-15T07:27:04;20.50;58.20
49184;DHT22;35021;49.214;12.270;2022-10-15T07:29:43;20.60;58.40
49184;DHT22;35021;49.214;12.270;2022-10-15T07:32:10;20.50;58.30
49184;DHT22;35021;49.214;12.270;2022-10-15T07:34:37;20.50;58.40
49184;DHT22;35021;49.214;12.270;2022-10-15T07:37:04;20.50;58.40
49184;DHT22;35021;49.214;12.270;2022-10-15T07:39:31;20.50;58.50
49184;DHT22;35021;49.214;12.270;2022-10-15T07:42:00;20.50;58.60
49184;DHT22;35021;49.214;12.270;2022-10-15T07:44:27;20.50;58.50
49184;DHT22;35021;49.214;12.270;2022-10-15T07:46:54;20.50;58.60
49184;DHT22;35021;49.214;12.270;2022-10-15T07:49:21;20.50;58.50
49184;DHT22;35021;49.214;12.270;2022-10-15T07:51:47;20.50;58.50
49184;DHT22;35021;49.214;12.270;2022-10-15T07:54:15;20.50;58.60
49184;DHT22;35021;49.214;12.270;2022-10-15T07:56:42;20.50;58.60
49184;DHT22;35021;49.214;12.270;2022-10-15T07:59:08;20.50;58.60
49184;DHT22;35021;49.214;12.270;2022-10-15T08:01:35;20.50;58.60
49184;DHT22;35021;49.214;12.270;2022-10-15T08:04:02;20.50;58.60
49184;DHT22;35021;49.214;12.270;2022-10-15T08:06:30;20.50;58.60
49184;DHT22;35021;49.214;12.270;2022-10-15T08:08:57;20.50;58.60
49184;DHT22;35021;49.214;12.270;2022-10-15T08:11:24;20.50;58.60
49184;DHT22;35021;49.214;12.270;2022-10-15T08:13:52;20.50;58.70
49184;DHT22;35021;49.214;12.270;2022-10-15T08:16:19;20.50;59.40
49184;DHT22;35021;49.214;12.270;2022-10-15T08:18:45;20.50;58.70
49184;DHT22;35021;49.214;12.270;2022-10-15T08:21:12;20.50;58.70
49184;DHT22;35021;49.214;12.270;2022-10-15T08:23:39;20.50;58.70
49184;DHT22;35021;49.214;12.270;2022-10-15T08:26:06;20.50;58.70
49184;DHT22;35021;49.214;12.270;2022-10-15T08:28:34;20.50;58.80
49184;DHT22;35021;49.214;12.270;2022-10-15T08:31:03;20.50;58.80
49184;DHT22;35021;49.214;12.270;2022-10-15T08:33:33;20.50;58.80
49184;DHT22;35021;49.214;12.270;2022-10-15T08:36:00;20.50;59.00
49184;DHT22;35021;49.214;12.270;2022-10-15T08:38:29;20.50;59.00
49184;DHT22;35021;49.214;12.270;2022-10-15T08:40:59;20.50;59.20
49184;DHT22;35021;49.214;12.270;2022-10-15T08:43:39;20.50;59.40
49184;DHT22;35021;49.214;12.270;2022-10-15T08:46:15;20.50;59.60
49184;DHT22;35021;49.214;12.270;2022-10-15T08:48:46;20.50;59.80
49184;DHT22;35021;49.214;12.270;2022-10-15T08:51:24;20.50;60.10
49184;DHT22;35021;49.214;12.270;2022-10-15T08:54:01;20.50;60.30
49184;DHT22;35021;49.214;12.270;2022-10-15T08:56:36;20.60;60.30
49184;DHT22;35021;49.214;12.270;2022-10-15T09:01:53;20.80;60.10
49184;DHT22;35021;49.214;12.270;2022-10-15T09:04:41;20.90;60.00
49184;DHT22;35021;49.214;12.270;2022-10-15T09:07:18;21.10;59.90
49184;DHT22;35021;49.214;12.270;2022-10-15T09:09:53;21.20;59.60
49184;DHT22;35021;49.214;12.270;2022-10-15T09:12:58;21.30;59.40
49184;DHT22;35021;49.214;12.270;2022-10-15T09:15:28;21.50;59.80
49184;DHT22;35021;49.214;12.270;2022-10-15T09:17:58;21.60;59.00
49184;DHT22;35021;49.214;12.270;2022-10-15T09:20:31;21.70;58.70
49184;DHT22;35021;49.214;12.270;2022-10-15T09:22:59;21.80;58.40
49184;DHT22;35021;49.214;12.270;2022-10-15T09:25:33;21.90;58.20
49184;DHT22;35021;49.214;12.270;2022-10-15T09:28:08;22.00;58.10
49184;DHT22;35021;49.214;12.270;2022-10-15T09:30:48;22.10;58.00
49184;DHT22;35021;49.214;12.270;2022-10-15T09:33:48;22.10;57.80
49184;DHT22;35021;49.214;12.270;2022-10-15T09:38:57;22.10;57.50
49184;DHT22;35021;49.214;12.270;2022-10-15T09:44:10;22.10;57.30
49184;DHT22;35021;49.214;12.270;2022-10-15T09:46:47;22.10;57.30
49184;DHT22;35021;49.214;12.270;2022-10-15T09:49:23;22.00;57.20
49184;DHT22;35021;49.214;12.270;2022-10-15T09:51:57;22.00;57.10
49184;DHT22;35021;49.214;12.270;2022-10-15T09:57:12;21.90;56.90
49184;DHT22;35021;49.214;12.270;2022-10-15T09:59:55;21.80;56.90
49184;DHT22;35021;49.214;12.270;2022-10-15T10:02:24;21.80;56.90
49184;DHT22;35021;49.214;12.270;2022-10-15T10:04:52;21.70;56.80
49184;DHT22;35021;49.214;12.270;2022-10-15T10:07:36;21.70;56.70
49184;DHT22;35021;49.214;12.270;2022-10-15T10:10:23;21.70;57.30
49184;DHT22;35021;49.214;12.270;2022-10-15T10:12:55;21.70;56.60
49184;DHT22;35021;49.214;12.270;2022-10-15T10:15:35;21.70;56.50
49184;DHT22;35021;49.214;12.270;2022-10-15T10:18:03;21.70;56.40
49184;DHT22;35021;49.214;12.270;2022-10-15T10:20:35;21.70;56.30
49184;DHT22;35021;49.214;12.270;2022-10-15T10:23:22;21.80;56.20
49184;DHT22;35021;49.214;12.270;2022-10-15T10:25:49;21.70;56.90
49184;DHT22;35021;49.214;12.270;2022-10-15T10:28:25;21.70;56.10
49184;DHT22;35021;49.214;12.270;2022-10-15T10:33:43;21.70;56.00
49184;DHT22;35021;49.214;12.270;2022-10-15T10:36:26;21.80;56.00
49184;DHT22;35021;49.214;12.270;2022-10-15T10:41:50;21.70;55.80
49184;DHT22;35021;49.214;12.270;2022-10-15T10:44:25;21.80;55.80
49184;DHT22;35021;49.214;12.270;2022-10-15T10:55:05;21.70;55.80
49184;DHT22;35021;49.214;12.270;2022-10-15T10:57:51;21.70;55.80
49184;DHT22;35021;49.214;12.270;2022-10-15T11:00:37;21.70;55.90
49184;DHT22;35021;49.214;12.270;2022-10-15T11:05:41;21.70;56.70
49184;DHT22;35021;49.214;12.270;2022-10-15T11:11:02;21.60;55.90
49184;DHT22;35021;49.214;12.270;2022-10-15T11:16:27;21.60;55.90
49184;DHT22;35021;49.214;12.270;2022-10-15T11:22:03;21.60;55.80
49184;DHT22;35021;49.214;12.270;2022-10-15T11:24:51;21.60;55.90
49184;DHT22;35021;49.214;12.270;2022-10-15T11:39:12;21.60;55.70
49184;DHT22;35021;49.214;12.270;2022-10-15T11:42:06;21.60;55.70
49184;DHT22;35021;49.214;12.270;2022-10-15T11:57:36;21.60;55.70
49184;DHT22;35021;49.214;12.270;2022-10-15T12:03:01;21.60;55.90
49184;DHT22;35021;49.214;12.270;2022-10-15T12:05:37;21.70;55.90
49184;DHT22;35021;49.214;12.270;2022-10-15T12:08:06;21.70;55.80
49184;DHT22;35021;49.214;12.270;2022-10-15T12:13:39;21.70;55.50
49184;DHT22;35021;49.214;12.270;2022-10-15T12:16:15;21.70;55.50
49184;DHT22;35021;49.214;12.270;2022-10-15T12:29:51;21.70;55.30
49184;DHT22;35021;49.214;12.270;2022-10-15T12:32:43;21.70;55.30
49184;DHT22;35021;49.214;12.270;2022-10-15T12:37:43;21.70;55.20
49184;DHT22;35021;49.214;12.270;2022-10-15T12:40:30;21.70;55.30
49184;DHT22;35021;49.214;12.270;2022-10-15T12:43:04;21.70;55.40
49184;DHT22;35021;49.214;12.270;2022-10-15T12:45:40;21.70;55.50
49184;DHT22;35021;49.214;12.270;2022-10-15T12:50:41;21.80;55.50
49184;DHT22;35021;49.214;12.270;2022-10-15T13:01:27;21.80;55.60
49184;DHT22;35021;49.214;12.270;2022-10-15T13:03:56;21.80;55.40
49184;DHT22;35021;49.214;12.270;2022-10-15T13:06:35;21.80;55.30
49184;DHT22;35021;49.214;12.270;2022-10-15T13:09:39;21.80;55.30
49184;DHT22;35021;49.214;12.270;2022-10-15T13:12:20;21.80;55.30
49184;DHT22;35021;49.214;12.270;2022-10-15T13:14:52;21.80;55.30
49184;DHT22;35021;49.214;12.270;2022-10-15T13:17:21;21.80;55.20
49184;DHT22;35021;49.214;12.270;2022-10-15T13:22:44;21.80;55.10
49184;DHT22;35021;49.214;12.270;2022-10-15T13:25:15;21.80;55.00
49184;DHT22;35021;49.214;12.270;2022-10-15T13:27:42;21.80;55.00
49184;DHT22;35021;49.214;12.270;2022-10-15T13:30:14;21.80;55.00
49184;DHT22;35021;49.214;12.270;2022-10-15T13:32:50;21.80;55.00
49184;DHT22;35021;49.214;12.270;2022-10-15T13:35:37;21.80;55.00
49184;DHT22;35021;49.214;12.270;2022-10-15T13:38:05;21.80;55.00
49184;DHT22;35021;49.214;12.270;2022-10-15T13:40:32;21.80;55.00
49184;DHT22;35021;49.214;12.270;2022-10-15T13:43:20;21.80;55.10
49184;DHT22;35021;49.214;12.270;2022-10-15T13:45:56;21.80;54.90
49184;DHT22;35021;49.214;12.270;2022-10-15T13:48:28;21.80;54.90
49184;DHT22;35021;49.214;12.270;2022-10-15T13:51:01;21.80;55.00
49184;DHT22;35021;49.214;12.270;2022-10-15T13:55:59;21.80;55.10
49184;DHT22;35021;49.214;12.270;2022-10-15T13:58:33;21.70;55.20
49184;DHT22;35021;49.214;12.270;2022-10-15T14:01:07;21.70;55.20
49184;DHT22;35021;49.214;12.270;2022-10-15T14:03:36;21.70;55.30
49184;DHT22;35021;49.214;12.270;2022-10-15T14:06:17;21.70;55.30
49184;DHT22;35021;49.214;12.270;2022-10-15T14:08:52;21.70;55.30
49184;DHT22;35021;49.214;12.270;2022-10-15T14:11:19;21.70;55.20
49184;DHT22;35021;49.214;12.270;2022-10-15T14:13:49;21.70;55.20
49184;DHT22;35021;49.214;12.270;2022-10-15T14:16:29;21.70;55.20
49184;DHT22;35021;49.214;12.270;2022-10-15T14:19:13;21.60;55.20
49184;DHT22;35021;49.214;12.270;2022-10-15T14:21:43;21.70;55.20
49184;DHT22;35021;49.214;12.270;2022-10-15T14:24:19;21.60;55.20
49184;DHT22;35021;49.214;12.270;2022-10-15T14:26:47;21.60;55.20
49184;DHT22;35021;49.214;12.270;2022-10-15T14:29:27;21.60;55.20
49184;DHT22;35021;49.214;12.270;2022-10-15T14:31:55;21.60;55.20
49184;DHT22;35021;49.214;12.270;2022-10-15T14:36:56;21.70;55.20
49184;DHT22;35021;49.214;12.270;2022-10-15T14:39:31;21.70;55.10
49184;DHT22;35021;49.214;12.270;2022-10-15T14:42:04;21.70;55.10
49184;DHT22;35021;49.214;12.270;2022-10-15T14:44:43;21.70;55.10
49184;DHT22;35021;49.214;12.270;2022-10-15T14:47:20;21.70;55.20
49184;DHT22;35021;49.214;12.270;2022-10-15T14:50:00;21.70;55.20
49184;DHT22;35021;49.214;12.270;2022-10-15T14:52:28;21.70;55.20
49184;DHT22;35021;49.214;12.270;2022-10-15T14:57:29;21.70;55.30
49184;DHT22;35021;49.214;12.270;2022-10-15T14:59:58;21.70;55.30
49184;DHT22;35021;49.214;12.270;2022-10-15T15:02:27;21.70;55.40
49184;DHT22;35021;49.214;12.270;2022-10-15T15:05:27;21.70;55.40
49184;DHT22;35021;49.214;12.270;2022-10-15T15:07:55;21.70;55.50
49184;DHT22;35021;49.214;12.270;2022-10-15T15:10:26;21.70;55.50
49184;DHT22;35021;49.214;12.270;2022-10-15T15:12:55;21.70;55.50
49184;DHT22;35021;49.214;12.270;2022-10-15T15:15:23;21.80;55.60
49184;DHT22;35021;49.214;12.270;2022-10-15T15:17:51;21.70;55.60
49184;DHT22;35021;49.214;12.270;2022-10-15T15:20:18;21.80;55.60
49184;DHT22;35021;49.214;12.270;2022-10-15T15:22:50;21.70;55.70
49184;DHT22;35021;49.214;12.270;2022-10-15T15:25:25;21.70;55.70
49184;DHT22;35021;49.214;12.270;2022-10-15T15:27:52;21.70;55.80
49184;DHT22;35021;49.214;12.270;2022-10-15T15:30:22;21.70;55.80
49184;DHT22;35021;49.214;12.270;2022-10-15T15:32:49;21.80;55.90
49184;DHT22;35021;49.214;12.270;2022-10-15T15:35:27;21.70;55.90
49184;DHT22;35021;49.214;12.270;2022-10-15T15:37:55;21.70;56.70
49184;DHT22;35021;49.214;12.270;2022-10-15T15:40:22;21.70;56.00
49184;DHT22;35021;49.214;12.270;2022-10-15T15:42:49;21.70;56.10
49184;DHT22;35021;49.214;12.270;2022-10-15T15:45:24;21.70;56.20
49184;DHT22;35021;49.214;12.270;2022-10-15T15:47:52;21.70;56.30
49184;DHT22;35021;49.214;12.270;2022-10-15T15:50:20;21.70;56.50
49184;DHT22;35021;49.214;12.270;2022-10-15T15:52:47;21.60;56.50
49184;DHT22;35021;49.214;12.270;2022-10-15T15:55:14;21.60;56.60
49184;DHT22;35021;49.214;12.270;2022-10-15T15:57:41;21.60;56.70
49184;DHT22;35021;49.214;12.270;2022-10-15T16:00:09;21.60;56.90
49184;DHT22;35021;49.214;12.270;2022-10-15T16:02:37;21.60;57.00
49184;DHT22;35021;49.214;12.270;2022-10-15T16:05:05;21.60;57.10
49184;DHT22;35021;49.214;12.270;2022-10-15T16:07:32;21.60;57.20
49184;DHT22;35021;49.214;12.270;2022-10-15T16:10:00;21.60;57.20
49184;DHT22;35021;49.214;12.270;2022-10-15T16:12:28;21.60;57.30
49184;DHT22;35021;49.214;12.270;2022-10-15T16:14:55;21.60;57.40
49184;DHT22;35021;49.214;12.270;2022-10-15T16:17:26;21.60;57.50
49184;DHT22;35021;49.214;12.270;2022-10-15T16:19:54;21.60;57.50
49184;DHT22;35021;49.214;12.270;2022-10-15T16:22:20;21.60;57.50
49184;DHT22;35021;49.214;12.270;2022-10-15T16:24:47;21.60;57.60
49184;DHT22;35021;49.214;12.270;2022-10-15T16:27:14;21.60;57.60
49184;DHT22;35021;49.214;12.270;2022-10-15T16:29:41;21.60;57.50
49184;DHT22;35021;49.214;12.270;2022-10-15T16:32:08;21.60;57.70
49184;DHT22;35021;49.214;12.270;2022-10-15T16:34:35;21.60;57.80
49184;DHT22;35021;49.214;12.270;2022-10-15T16:37:02;21.60;57.90
49184;DHT22;35021;49.214;12.270;2022-10-15T16:39:28;21.60;58.00
49184;DHT22;35021;49.214;12.270;2022-10-15T16:41:55;21.60;58.10
49184;DHT22;35021;49.214;12.270;2022-10-15T16:44:22;21.50;58.10
49184;DHT22;35021;49.214;12.270;2022-10-15T16:46:49;21.50;58.20
49184;DHT22;35021;49.214;12.270;2022-10-15T16:49:16;21.50;58.30
49184;DHT22;35021;49.214;12.270;2022-10-15T16:51:43;21.50;58.30
49184;DHT22;35021;49.214;12.270;2022-10-15T16:54:13;21.50;58.30
49184;DHT22;35021;49.214;12.270;2022-10-15T16:56:41;21.50;58.40
49184;DHT22;35021;49.214;12.270;2022-10-15T16:59:08;21.50;58.40
49184;DHT22;35021;49.214;12.270;2022-10-15T17:01:35;21.50;58.40
49184;DHT22;35021;49.214;12.270;2022-10-15T17:04:02;21.50;58.40
49184;DHT22;35021;49.214;12.270;2022-10-15T17:06:30;21.50;58.40
49184;DHT22;35021;49.214;12.270;2022-10-15T17:09:00;21.50;58.40
49184;DHT22;35021;49.214;12.270;2022-10-15T17:11:36;21.50;58.40
49184;DHT22;35021;49.214;12.270;2022-10-15T17:14:09;21.50;58.40
49184;DHT22;35021;49.214;12.270;2022-10-15T17:16:44;21.50;58.40
49184;DHT22;35021;49.214;12.270;2022-10-15T17:19:12;21.50;58.40
49184;DHT22;35021;49.214;12.270;2022-10-15T17:21:40;21.50;58.40
49184;DHT22;35021;49.214;12.270;2022-10-15T17:24:11;21.50;58.40
49184;DHT22;35021;49.214;12.270;2022-10-15T17:26:41;21.50;58.50
49184;DHT22;35021;49.214;12.270;2022-10-15T17:29:11;21.50;58.40
49184;DHT22;35021;49.214;12.270;2022-10-15T17:31:38;21.50;58.60
49184;DHT22;35021;49.214;12.270;2022-10-15T17:34:08;21.40;58.60
49184;DHT22;35021;49.214;12.270;2022-10-15T17:36:38;21.40;58.70
49184;DHT22;35021;49.214;12.270;2022-10-15T17:39:09;21.40;58.90
49184;DHT22;35021;49.214;12.270;2022-10-15T17:41:37;21.40;59.00
49184;DHT22;35021;49.214;12.270;2022-10-15T17:44:03;21.30;58.90
49184;DHT22;35021;49.214;12.270;2022-10-15T17:46:30;21.30;59.00
49184;DHT22;35021;49.214;12.270;2022-10-15T17:48:58;21.30;59.00
49184;DHT22;35021;49.214;12.270;2022-10-15T17:51:27;21.30;59.10
49184;DHT22;35021;49.214;12.270;2022-10-15T17:53:55;21.30;59.10